Orient Glider Airport

Jump to: basic info | weather | comments

Related pages: nearby airports | nearby navaids | notams | map

Basic information (top)

Codes: FAOI
Location: lon -26.039400, lat 27.595600, elev 5,102 ft / 1,555 m msl
Status: small_airport

Weather (top)

Current conditions for Lanseria Airport 19nm (35km) ENE (rec'd 2014/10/25 19:00Z):

FALA 251900Z 21010KT 190V250 5000 TSRA OVC020 FEW045CB 15/15 Q1025 TEMPO 3000

Airport forecast for Lanseria Airport 19nm (35km) ENE (rec'd 2014/10/25 18:00Z):

TAF FALA 251620Z 2518/2618 02014KT 9999 SCT040 
      TEMPO 2518/2524 27018KT 5000 TSRA FEW035CB PROB30 
      TEMPO 2518/2519 2000 TSGSRA SCT030CB 
      BECMG 2521/2523 09008KT BKN012 PROB30 
      TEMPO 2600/2606 4000 -TSRA BR BKN008 FEW040CB 
      BECMG 2608/2610 SCT040 PROB30 
      TEMPO 2610/2612 -TSRA FEW035CB TX26/2613ZTN12/2604Z

Latest comments (top)

Runway Orientation and Airfield Frequency: Runway 36/18 (Main) Runway 11/29 Airfi ... [read]

More... (top)

See also NOTAMs and nearby airports and navaids, or visit the Orient Glider Airport page at the main OurAirports website..